Sainte-Anne-De-Beaupre, Canada
Current Conditions -  °F | °C
As of 1:11 PM on Saturday 25 Oct 2014 (Local Time) from CYQB Reporting Station
Haze Haze  
Wind Chill: 41°   Ceiling: 14000
Heat Index: 45°   Visibility: 5mi
Dew Point: 41°   Wind: 6mph
Humidity: 87%   Direction: 180°S
Pressure: 29.59"   Gusts: NA
Location:  47.02°N, 70.93°W
Report Text: CYQB 251711Z 18005KT 160V250 5SM BR SCT007 BKN140 07/05 A2959 RMK SF4AC1 PRESFR SLP023
Loading
Personal Weather Stations






























Interactive Weather Map
Tropical Storm Tracking
New forecast layout! Learn more

10-Day Weather Forecast

Advertisements
Track Severe Weather on mobile